Time;durP1;ratioP1;P1;durP2;ratioP2;P2;SDS_P1;SDS_P2;PMS_P1;PMS_P2;Temp;Humidity;BMP_temperature;BMP_pressure;BME280_temperature;BME280_humidity;BME280_pressure;Samples;Min_cycle;Max_cycle;Signal;HPM_P1;HPM_P2
2022/07/27 00:00:31;;;;;;;6.43;1.00;;;;;;;;;;4933052;28;20077;-66
2022/07/27 00:02:56;;;;;;;5.25;0.90;;;;;;;;;;4933419;28;20050;-65
2022/07/27 00:05:23;;;;;;;6.65;1.70;;;;;;;;;;4933419;28;20038;-65
2022/07/27 00:07:51;;;;;;;11.25;1.10;;;;;;;;;;4933895;28;20050;-66
2022/07/27 00:10:18;;;;;;;12.38;1.60;;;;;;;;;;4934611;28;20923;-65
2022/07/27 00:12:44;;;;;;;11.50;1.23;;;;;;;;;;4933644;28;20094;-64
2022/07/27 00:15:10;;;;;;;7.45;1.10;;;;;;;;;;4934437;28;21171;-66
2022/07/27 00:17:35;;;;;;;6.80;1.13;;;;;;;;;;4934075;28;20031;-64
2022/07/27 00:20:01;;;;;;;5.72;0.90;;;;;;;;;;4934319;28;20237;-64
2022/07/27 00:22:26;;;;;;;6.15;1.00;;;;;;;;;;4937311;28;20804;-64
2022/07/27 00:24:51;;;;;;;5.78;1.00;;;;;;;;;;4942064;28;20093;-66
2022/07/27 00:27:16;;;;;;;6.30;1.67;;;;;;;;;;4937847;28;20161;-64
2022/07/27 00:29:42;;;;;;;5.72;0.80;;;;;;;;;;4937865;28;20114;-63
2022/07/27 00:32:08;;;;;;;7.47;1.30;;;;;;;;;;4938632;28;21083;-65
2022/07/27 00:34:33;;;;;;;5.90;1.40;;;;;;;;;;4936864;28;20035;-65
2022/07/27 00:36:58;;;;;;;6.20;1.08;;;;;;;;;;4938045;28;20031;-66
2022/07/27 00:39:24;;;;;;;11.93;1.20;;;;;;;;;;4941085;28;20863;-65
2022/07/27 00:41:49;;;;;;;8.68;1.13;;;;;;;;;;4937898;28;20100;-65
2022/07/27 00:44:26;;;;;;;8.30;1.20;;;;;;;;;;4919091;28;20053;-64
2022/07/27 00:46:54;;;;;;;8.48;1.02;;;;;;;;;;4937425;28;20038;-64
2022/07/27 00:49:19;;;;;;;11.32;1.25;;;;;;;;;;4924484;28;20138;-64
2022/07/27 00:51:47;;;;;;;5.68;1.10;;;;;;;;;;4937280;28;20162;-66
2022/07/27 00:54:12;;;;;;;12.70;1.38;;;;;;;;;;4936832;28;22554;-65
2022/07/27 00:56:38;;;;;;;11.68;1.48;;;;;;;;;;4936800;28;20042;-64
2022/07/27 00:59:06;;;;;;;6.70;0.90;;;;;;;;;;4935132;28;20101;-65
2022/07/27 01:01:32;;;;;;;8.18;1.13;;;;;;;;;;4938013;28;20097;-65
2022/07/27 01:03:57;;;;;;;6.55;1.20;;;;;;;;;;4923581;28;20031;-65
2022/07/27 01:06:22;;;;;;;7.82;1.30;;;;;;;;;;4938047;28;20844;-65
2022/07/27 01:09:55;;;;;;;5.47;1.38;;;;;;;;;;4924004;28;20035;-65
2022/07/27 01:11:38;;;;;;;5.85;0.80;;;;;;;;;;4936921;28;20045;-65
2022/07/27 01:14:03;;;;;;;10.93;1.15;;;;;;;;;;4941388;28;20685;-65
2022/07/27 01:16:30;;;;;;;13.73;1.85;;;;;;;;;;4936283;28;20085;-65
2022/07/27 01:18:56;;;;;;;7.88;1.25;;;;;;;;;;4937520;28;20986;-65
2022/07/27 01:21:21;;;;;;;10.00;1.35;;;;;;;;;;4937615;28;20043;-64
2022/07/27 01:23:46;;;;;;;12.30;1.40;;;;;;;;;;4936456;28;20092;-64
2022/07/27 01:26:12;;;;;;;7.25;1.10;;;;;;;;;;4937145;28;20062;-64
2022/07/27 01:28:37;;;;;;;7.15;1.20;;;;;;;;;;4940860;28;20027;-64
2022/07/27 01:31:03;;;;;;;18.48;1.17;;;;;;;;;;4936740;28;22232;-65
2022/07/27 01:33:30;;;;;;;10.50;1.60;;;;;;;;;;4937309;28;20121;-65
2022/07/27 01:35:56;;;;;;;8.82;1.50;;;;;;;;;;4936991;28;20468;-64
2022/07/27 01:38:21;;;;;;;5.80;0.90;;;;;;;;;;4936615;28;20034;-64
2022/07/27 01:40:51;;;;;;;9.98;1.30;;;;;;;;;;4936933;28;20050;-65
2022/07/27 01:43:16;;;;;;;5.70;0.98;;;;;;;;;;4936783;28;20100;-64
2022/07/27 01:45:42;;;;;;;7.13;1.42;;;;;;;;;;4936013;28;20060;-64
2022/07/27 01:48:08;;;;;;;7.93;1.35;;;;;;;;;;4935845;28;20137;-65
2022/07/27 01:50:33;;;;;;;8.70;1.40;;;;;;;;;;4936470;28;20913;-64
2022/07/27 01:53:00;;;;;;;9.32;1.40;;;;;;;;;;4935370;28;20030;-64
2022/07/27 01:55:26;;;;;;;7.32;1.20;;;;;;;;;;4937370;28;21069;-66
2022/07/27 01:57:51;;;;;;;14.35;1.80;;;;;;;;;;4943314;28;20031;-64
2022/07/27 02:00:17;;;;;;;7.32;1.58;;;;;;;;;;4936630;28;20073;-64
2022/07/27 02:02:42;;;;;;;7.97;1.02;;;;;;;;;;4936786;28;20114;-65
2022/07/27 02:05:10;;;;;;;11.07;1.25;;;;;;;;;;4937136;28;20058;-65
2022/07/27 02:07:38;;;;;;;13.18;1.60;;;;;;;;;;4934493;28;20105;-65
2022/07/27 02:10:04;;;;;;;12.23;1.60;;;;;;;;;;4935951;28;20049;-64
2022/07/27 02:12:35;;;;;;;6.85;1.15;;;;;;;;;;4935333;28;20035;-65
2022/07/27 02:15:04;;;;;;;5.00;1.10;;;;;;;;;;4935333;28;20047;-65
2022/07/27 02:17:30;;;;;;;7.88;1.42;;;;;;;;;;4936215;28;20294;-65
2022/07/27 02:19:55;;;;;;;11.35;1.42;;;;;;;;;;4948197;28;20888;-63
2022/07/27 02:22:21;;;;;;;10.90;1.50;;;;;;;;;;4934660;28;20039;-63
2022/07/27 02:24:46;;;;;;;11.25;1.35;;;;;;;;;;4934973;28;20957;-64
2022/07/27 02:27:13;;;;;;;10.20;1.80;;;;;;;;;;4935460;28;20062;-63
2022/07/27 02:29:38;;;;;;;9.25;1.48;;;;;;;;;;4939646;28;20034;-63
2022/07/27 02:32:04;;;;;;;16.75;1.83;;;;;;;;;;4935564;28;20035;-63
2022/07/27 02:34:29;;;;;;;14.30;1.70;;;;;;;;;;4934971;28;20810;-64
2022/07/27 02:36:54;;;;;;;6.60;1.55;;;;;;;;;;4935580;28;20034;-65
2022/07/27 02:39:20;;;;;;;14.25;2.15;;;;;;;;;;4935426;28;21896;-64
2022/07/27 02:41:46;;;;;;;14.10;1.88;;;;;;;;;;4934628;28;20117;-64
2022/07/27 02:44:14;;;;;;;14.07;1.83;;;;;;;;;;4932848;28;20121;-63
2022/07/27 02:46:40;;;;;;;7.07;1.50;;;;;;;;;;4934404;28;20039;-63
2022/07/27 02:49:05;;;;;;;9.32;1.67;;;;;;;;;;4934248;28;20100;-64
2022/07/27 02:51:30;;;;;;;8.65;1.52;;;;;;;;;;4934762;28;20042;-64
2022/07/27 02:53:56;;;;;;;11.95;1.40;;;;;;;;;;4934519;28;20031;-65
2022/07/27 02:56:21;;;;;;;13.65;1.60;;;;;;;;;;4938116;28;22242;-65
2022/07/27 02:58:49;;;;;;;10.50;1.52;;;;;;;;;;4934795;28;20031;-64
2022/07/27 03:01:15;;;;;;;14.23;1.58;;;;;;;;;;4934890;28;20031;-64
2022/07/27 03:03:40;;;;;;;9.77;1.58;;;;;;;;;;4933044;28;20045;-65
2022/07/27 03:06:06;;;;;;;15.25;1.80;;;;;;;;;;4934314;28;20038;-65
2022/07/27 03:08:31;;;;;;;9.80;1.60;;;;;;;;;;4934391;28;20120;-64
2022/07/27 03:10:57;;;;;;;12.65;1.50;;;;;;;;;;4934238;28;20035;-65
2022/07/27 03:13:22;;;;;;;12.40;2.20;;;;;;;;;;4933412;28;20125;-65
2022/07/27 03:15:47;;;;;;;8.40;1.33;;;;;;;;;;4934248;28;20034;-65
2022/07/27 03:18:13;;;;;;;9.88;2.00;;;;;;;;;;4934249;28;20027;-64
2022/07/27 03:20:40;;;;;;;7.15;1.70;;;;;;;;;;4933632;28;20046;-64
2022/07/27 03:23:06;;;;;;;11.07;1.77;;;;;;;;;;4933781;28;20819;-64
2022/07/27 03:25:31;;;;;;;5.53;1.52;;;;;;;;;;4932004;28;20220;-65
2022/07/27 03:27:59;;;;;;;9.45;1.27;;;;;;;;;;4933276;28;20050;-65
2022/07/27 03:30:26;;;;;;;11.77;1.65;;;;;;;;;;4937082;28;20764;-64
2022/07/27 03:32:51;;;;;;;10.38;1.55;;;;;;;;;;4933045;28;20070;-65
2022/07/27 03:35:17;;;;;;;8.35;1.48;;;;;;;;;;4938725;28;20141;-65
2022/07/27 03:37:42;;;;;;;10.07;1.58;;;;;;;;;;4930901;28;20034;-64
2022/07/27 03:40:08;;;;;;;9.45;1.30;;;;;;;;;;4931295;28;20042;-63
2022/07/27 03:42:34;;;;;;;11.23;2.00;;;;;;;;;;4920521;28;20057;-64
2022/07/27 03:44:59;;;;;;;10.90;1.58;;;;;;;;;;4931305;28;20930;-65
2022/07/27 03:47:24;;;;;;;9.98;2.00;;;;;;;;;;4932164;28;20073;-63
2022/07/27 03:49:51;;;;;;;7.65;1.35;;;;;;;;;;4930296;28;20610;-66
2022/07/27 03:52:16;;;;;;;11.30;1.52;;;;;;;;;;4932314;28;20665;-65
2022/07/27 03:54:42;;;;;;;8.10;1.42;;;;;;;;;;4930645;28;20124;-64
2022/07/27 03:57:07;;;;;;;9.50;1.38;;;;;;;;;;4932103;28;20128;-65
2022/07/27 03:59:32;;;;;;;5.45;1.40;;;;;;;;;;4929671;28;20071;-66
2022/07/27 04:01:59;;;;;;;10.30;1.98;;;;;;;;;;4931993;28;20130;-63
2022/07/27 04:04:25;;;;;;;15.75;1.60;;;;;;;;;;4930942;28;20778;-64
2022/07/27 04:06:50;;;;;;;13.00;1.52;;;;;;;;;;4930959;28;20108;-65
2022/07/27 04:09:16;;;;;;;5.43;1.10;;;;;;;;;;4931728;28;20041;-65
2022/07/27 04:11:42;;;;;;;10.77;2.00;;;;;;;;;;4930218;28;20034;-66
2022/07/27 04:14:07;;;;;;;11.77;1.70;;;;;;;;;;4933482;28;20066;-66
2022/07/27 04:16:32;;;;;;;10.45;1.88;;;;;;;;;;4931153;28;20041;-64
2022/07/27 04:18:58;;;;;;;7.57;1.55;;;;;;;;;;4936334;28;20043;-65
2022/07/27 04:21:23;;;;;;;5.82;1.00;;;;;;;;;;4931644;28;20234;-63
2022/07/27 04:23:51;;;;;;;8.88;1.40;;;;;;;;;;4943235;28;20149;-65
2022/07/27 04:26:16;;;;;;;8.63;1.20;;;;;;;;;;4930755;28;20145;-65
2022/07/27 04:28:41;;;;;;;8.65;1.10;;;;;;;;;;4929725;28;20038;-64
2022/07/27 04:31:09;;;;;;;8.32;1.45;;;;;;;;;;4930039;28;20034;-64
2022/07/27 04:33:35;;;;;;;12.27;1.30;;;;;;;;;;4928704;28;20039;-65
2022/07/27 04:36:00;;;;;;;10.73;2.00;;;;;;;;;;4934691;28;20181;-65
2022/07/27 04:38:26;;;;;;;11.38;1.77;;;;;;;;;;4932879;28;21073;-65
2022/07/27 04:40:51;;;;;;;7.35;1.15;;;;;;;;;;4940010;28;20041;-64
2022/07/27 04:43:17;;;;;;;8.18;1.20;;;;;;;;;;4933373;28;20256;-66
2022/07/27 04:45:42;;;;;;;9.63;1.33;;;;;;;;;;4933883;28;20034;-64
2022/07/27 04:48:07;;;;;;;10.00;1.45;;;;;;;;;;4940775;28;20039;-66
2022/07/27 04:50:40;;;;;;;16.38;1.50;;;;;;;;;;4933331;28;20146;-64
2022/07/27 04:53:09;;;;;;;7.20;1.27;;;;;;;;;;4937391;28;20920;-64
2022/07/27 04:55:34;;;;;;;10.57;1.40;;;;;;;;;;4929455;28;20224;-65
2022/07/27 04:58:00;;;;;;;8.73;1.50;;;;;;;;;;4933038;28;20188;-66
2022/07/27 05:00:26;;;;;;;10.02;1.10;;;;;;;;;;4932157;28;20158;-64
2022/07/27 05:02:51;;;;;;;8.52;1.38;;;;;;;;;;4932088;28;20034;-66
2022/07/27 05:05:17;;;;;;;9.20;1.35;;;;;;;;;;4932275;28;20032;-65
2022/07/27 05:07:42;;;;;;;9.45;1.33;;;;;;;;;;4950705;28;22324;-65
2022/07/27 05:10:07;;;;;;;6.75;1.33;;;;;;;;;;4950078;28;20640;-66
2022/07/27 05:12:33;;;;;;;8.85;1.17;;;;;;;;;;4936839;28;20703;-66
2022/07/27 05:14:59;;;;;;;7.90;1.23;;;;;;;;;;4936659;28;20042;-65
2022/07/27 05:17:24;;;;;;;11.68;1.77;;;;;;;;;;4944859;28;20043;-66
2022/07/27 05:19:50;;;;;;;6.82;1.10;;;;;;;;;;4934977;28;20516;-65
2022/07/27 05:22:15;;;;;;;8.80;1.20;;;;;;;;;;4935885;28;20158;-65
2022/07/27 05:24:41;;;;;;;11.75;1.75;;;;;;;;;;4937882;28;21052;-66
2022/07/27 05:27:07;;;;;;;8.07;1.35;;;;;;;;;;4935947;28;20041;-65
2022/07/27 05:29:32;;;;;;;8.90;1.08;;;;;;;;;;4943474;28;20050;-65
2022/07/27 05:31:58;;;;;;;6.07;1.30;;;;;;;;;;4935813;28;20050;-66
2022/07/27 05:34:23;;;;;;;8.27;1.30;;;;;;;;;;4937088;28;20043;-65
2022/07/27 05:36:48;;;;;;;6.75;1.00;;;;;;;;;;4934704;28;20046;-66
2022/07/27 05:39:13;;;;;;;7.82;1.38;;;;;;;;;;4943954;28;20038;-66
2022/07/27 05:41:39;;;;;;;6.15;1.00;;;;;;;;;;4949648;28;20185;-65
2022/07/27 05:44:04;;;;;;;3.92;0.70;;;;;;;;;;4943058;28;20130;-66
2022/07/27 05:46:32;;;;;;;7.95;0.90;;;;;;;;;;4933785;28;22390;-66
2022/07/27 05:48:58;;;;;;;7.65;1.20;;;;;;;;;;4935287;28;20038;-66
2022/07/27 05:51:23;;;;;;;4.60;1.10;;;;;;;;;;4935594;28;20201;-66
2022/07/27 05:53:49;;;;;;;10.07;1.40;;;;;;;;;;4936611;28;20035;-65
2022/07/27 05:56:17;;;;;;;7.68;1.00;;;;;;;;;;4936897;28;20042;-65
2022/07/27 05:58:42;;;;;;;6.38;0.90;;;;;;;;;;4937114;28;20031;-65
2022/07/27 06:01:07;;;;;;;10.15;1.33;;;;;;;;;;4928460;28;20098;-66
2022/07/27 06:03:32;;;;;;;3.97;0.80;;;;;;;;;;4948984;28;20357;-67
2022/07/27 06:08:43;;;;;;;5.65;1.10;;;;;;;;;;4939794;28;20050;-66
2022/07/27 06:11:09;;;;;;;8.50;1.00;;;;;;;;;;4952152;28;20289;-67
2022/07/27 06:13:35;;;;;;;5.10;1.08;;;;;;;;;;4937190;28;20039;-66
2022/07/27 06:16:01;;;;;;;7.28;1.30;;;;;;;;;;4953806;28;20285;-65
2022/07/27 06:18:26;;;;;;;6.32;1.00;;;;;;;;;;4938432;28;20043;-66
2022/07/27 06:20:52;;;;;;;4.90;0.90;;;;;;;;;;4939252;28;20157;-66
2022/07/27 06:23:17;;;;;;;6.82;1.00;;;;;;;;;;4936354;28;20492;-65
2022/07/27 06:25:42;;;;;;;7.10;0.90;;;;;;;;;;4939174;28;20307;-66
2022/07/27 06:28:08;;;;;;;5.22;0.90;;;;;;;;;;4938987;28;20455;-66
2022/07/27 06:30:33;;;;;;;7.30;1.17;;;;;;;;;;4939167;28;20630;-65
2022/07/27 06:32:59;;;;;;;6.45;0.85;;;;;;;;;;4934330;28;20035;-66
2022/07/27 06:35:27;;;;;;;4.82;0.98;;;;;;;;;;4937504;28;20030;-66
2022/07/27 06:37:53;;;;;;;8.48;0.95;;;;;;;;;;4935390;28;20104;-66
2022/07/27 06:40:19;;;;;;;5.30;0.70;;;;;;;;;;4934961;28;20046;-66
2022/07/27 06:42:47;;;;;;;6.35;0.80;;;;;;;;;;4933344;28;20039;-66
2022/07/27 06:45:12;;;;;;;5.35;1.10;;;;;;;;;;4933878;28;20027;-67
2022/07/27 06:47:40;;;;;;;5.03;0.93;;;;;;;;;;4932467;28;20140;-66
2022/07/27 06:50:06;;;;;;;7.22;1.10;;;;;;;;;;4939738;28;20474;-67
2022/07/27 06:52:32;;;;;;;4.43;0.90;;;;;;;;;;4935304;28;20030;-65
2022/07/27 06:54:57;;;;;;;6.60;1.00;;;;;;;;;;4933251;28;20042;-66
2022/07/27 06:57:22;;;;;;;5.88;1.13;;;;;;;;;;4934526;28;20150;-66
2022/07/27 06:59:50;;;;;;;9.02;1.10;;;;;;;;;;4935258;28;21273;-68
2022/07/27 07:02:18;;;;;;;5.03;1.05;;;;;;;;;;4934366;28;20070;-65
2022/07/27 07:04:44;;;;;;;4.05;0.82;;;;;;;;;;4933921;28;20833;-66
2022/07/27 07:07:09;;;;;;;5.13;0.95;;;;;;;;;;4940378;28;20034;-67
2022/07/27 07:09:34;;;;;;;3.78;0.75;;;;;;;;;;4934619;28;20042;-66
2022/07/27 07:12:01;;;;;;;11.07;0.98;;;;;;;;;;4931033;28;20095;-67
2022/07/27 07:14:28;;;;;;;6.28;1.27;;;;;;;;;;4930101;28;20089;-66
2022/07/27 07:16:54;;;;;;;7.05;1.17;;;;;;;;;;4934310;28;20045;-67
2022/07/27 07:19:22;;;;;;;9.85;1.05;;;;;;;;;;4933742;28;20053;-66
2022/07/27 07:21:47;;;;;;;4.85;1.05;;;;;;;;;;4934733;28;20130;-67
2022/07/27 07:24:13;;;;;;;5.13;1.05;;;;;;;;;;4933044;28;20208;-66
2022/07/27 07:26:39;;;;;;;5.75;0.98;;;;;;;;;;4933739;28;20154;-66
2022/07/27 07:29:04;;;;;;;3.83;0.73;;;;;;;;;;4938468;28;22428;-67
2022/07/27 07:31:32;;;;;;;3.05;0.90;;;;;;;;;;4934099;28;20037;-66
2022/07/27 07:33:57;;;;;;;3.90;1.10;;;;;;;;;;4933629;28;20165;-65
2022/07/27 07:36:25;;;;;;;5.78;1.02;;;;;;;;;;4933510;28;20698;-67
2022/07/27 07:38:51;;;;;;;6.97;0.80;;;;;;;;;;4931636;28;20178;-66
2022/07/27 07:41:16;;;;;;;4.78;1.05;;;;;;;;;;4933225;28;20883;-66
2022/07/27 07:43:41;;;;;;;5.88;1.15;;;;;;;;;;4933641;28;20042;-67
2022/07/27 07:46:09;;;;;;;5.68;0.88;;;;;;;;;;4933596;28;20042;-66
2022/07/27 07:48:35;;;;;;;6.00;0.95;;;;;;;;;;4932978;28;20698;-67
2022/07/27 07:51:00;;;;;;;5.03;1.00;;;;;;;;;;4947270;28;20035;-68
2022/07/27 07:53:25;;;;;;;4.10;1.02;;;;;;;;;;4931056;28;20126;-66
2022/07/27 07:55:52;;;;;;;4.65;0.90;;;;;;;;;;4931762;28;20117;-67
2022/07/27 07:58:18;;;;;;;4.68;0.90;;;;;;;;;;4933730;28;20030;-67
2022/07/27 08:00:46;;;;;;;3.78;0.70;;;;;;;;;;4936369;28;20051;-67
2022/07/27 08:03:12;;;;;;;4.50;0.70;;;;;;;;;;4934487;28;20031;-66
2022/07/27 08:05:37;;;;;;;10.57;0.85;;;;;;;;;;4924186;28;20041;-66
2022/07/27 08:08:03;;;;;;;6.65;1.10;;;;;;;;;;4934663;28;20851;-68
2022/07/27 08:10:28;;;;;;;5.93;1.08;;;;;;;;;;4932578;28;20153;-65
2022/07/27 08:12:55;;;;;;;6.25;1.10;;;;;;;;;;4933576;28;20109;-66
2022/07/27 08:15:20;;;;;;;6.25;1.33;;;;;;;;;;4947984;28;20039;-65
2022/07/27 08:17:46;;;;;;;7.68;1.15;;;;;;;;;;4933259;28;20031;-65
2022/07/27 08:20:12;;;;;;;9.23;1.40;;;;;;;;;;4930827;28;20131;-64
2022/07/27 08:22:37;;;;;;;7.38;1.10;;;;;;;;;;4932779;28;20125;-67
2022/07/27 08:25:03;;;;;;;8.07;1.33;;;;;;;;;;4935879;28;20053;-66
2022/07/27 08:27:28;;;;;;;6.13;1.10;;;;;;;;;;4932947;28;20027;-65
2022/07/27 08:29:57;;;;;;;6.85;1.30;;;;;;;;;;4932038;28;20034;-66
2022/07/27 08:32:23;;;;;;;7.20;1.17;;;;;;;;;;4937840;28;20043;-65
2022/07/27 08:34:49;;;;;;;6.20;1.25;;;;;;;;;;4930440;28;20049;-65
2022/07/27 08:37:14;;;;;;;5.68;1.13;;;;;;;;;;4933605;28;20035;-65
2022/07/27 08:39:39;;;;;;;8.25;1.35;;;;;;;;;;4933165;28;20042;-65
2022/07/27 08:42:08;;;;;;;8.80;1.30;;;;;;;;;;4935988;28;20874;-66
2022/07/27 08:44:33;;;;;;;2.58;0.90;;;;;;;;;;4951114;28;20089;-65
2022/07/27 08:47:02;;;;;;;3.85;1.00;;;;;;;;;;4936921;28;20035;-65
2022/07/27 08:49:30;;;;;;;4.97;0.90;;;;;;;;;;4949900;28;20042;-65
2022/07/27 08:51:56;;;;;;;3.47;1.17;;;;;;;;;;4937305;28;20057;-66
2022/07/27 08:54:22;;;;;;;7.45;1.42;;;;;;;;;;4935994;28;20054;-66
2022/07/27 08:56:48;;;;;;;7.43;1.20;;;;;;;;;;4934135;28;20050;-66
2022/07/27 08:59:13;;;;;;;3.90;1.13;;;;;;;;;;4933488;28;20038;-64
2022/07/27 09:01:38;;;;;;;5.00;0.90;;;;;;;;;;4931063;28;20307;-65
2022/07/27 09:04:07;;;;;;;7.90;1.10;;;;;;;;;;4932042;28;20035;-67
2022/07/27 09:06:49;;;;;;;4.63;0.88;;;;;;;;;;4940383;28;20094;-65
2022/07/27 09:09:18;;;;;;;7.07;1.40;;;;;;;;;;4934096;28;20031;-69
2022/07/27 09:11:43;;;;;;;5.30;0.90;;;;;;;;;;4936168;28;20977;-69
2022/07/27 09:14:11;;;;;;;5.18;0.70;;;;;;;;;;4936833;28;20035;-68
2022/07/27 09:16:37;;;;;;;3.70;0.90;;;;;;;;;;4936163;28;20073;-69
2022/07/27 09:19:07;;;;;;;4.22;0.73;;;;;;;;;;4935922;28;20035;-69
2022/07/27 09:21:33;;;;;;;3.70;0.90;;;;;;;;;;4937121;28;20142;-68
2022/07/27 09:24:05;;;;;;;8.90;0.85;;;;;;;;;;4936840;28;20046;-68
2022/07/27 09:26:31;;;;;;;5.38;0.80;;;;;;;;;;4936525;28;20039;-68
2022/07/27 09:29:03;;;;;;;2.85;0.57;;;;;;;;;;4936393;28;20038;-68
2022/07/27 09:31:28;;;;;;;8.75;0.80;;;;;;;;;;4940868;28;20828;-69
2022/07/27 09:33:56;;;;;;;3.35;0.70;;;;;;;;;;4936259;28;20117;-69
2022/07/27 09:36:25;;;;;;;6.55;0.77;;;;;;;;;;4936142;28;20073;-69
2022/07/27 09:39:01;;;;;;;4.45;0.88;;;;;;;;;;4936630;28;20133;-69
2022/07/27 09:41:37;;;;;;;4.45;0.82;;;;;;;;;;4938048;28;20074;-67
2022/07/27 09:44:02;;;;;;;5.10;1.00;;;;;;;;;;4940999;28;20034;-65
2022/07/27 09:46:32;;;;;;;4.15;0.80;;;;;;;;;;4935655;28;20038;-68
2022/07/27 09:48:57;;;;;;;5.53;0.80;;;;;;;;;;4935674;28;20046;-69
2022/07/27 09:51:25;;;;;;;1.90;0.65;;;;;;;;;;4934915;28;20073;-70
2022/07/27 09:53:51;;;;;;;6.05;0.77;;;;;;;;;;4935244;28;20051;-69
2022/07/27 09:56:23;;;;;;;4.15;0.85;;;;;;;;;;4937230;28;20042;-69
2022/07/27 09:58:50;;;;;;;3.17;0.98;;;;;;;;;;4935328;28;21170;-70
2022/07/27 10:01:17;;;;;;;2.85;0.93;;;;;;;;;;4937010;28;20110;-70
2022/07/27 10:03:45;;;;;;;6.40;1.17;;;;;;;;;;4934891;28;20817;-68
2022/07/27 10:06:11;;;;;;;6.47;1.00;;;;;;;;;;4935797;28;20041;-68
2022/07/27 10:08:37;;;;;;;3.55;0.77;;;;;;;;;;4948665;28;20121;-68
2022/07/27 10:11:03;;;;;;;3.35;0.90;;;;;;;;;;4924250;28;20475;-68
2022/07/27 10:13:28;;;;;;;4.85;0.80;;;;;;;;;;4936418;28;20049;-70
2022/07/27 10:15:54;;;;;;;3.83;0.82;;;;;;;;;;4941251;28;20038;-68
2022/07/27 10:18:31;;;;;;;5.25;0.75;;;;;;;;;;4936863;28;20043;-69
2022/07/27 10:20:58;;;;;;;3.03;0.70;;;;;;;;;;4936333;28;20178;-69
2022/07/27 10:23:25;;;;;;;3.53;0.93;;;;;;;;;;4934354;28;20047;-70
2022/07/27 10:26:12;;;;;;;4.32;0.90;;;;;;;;;;4936649;28;20124;-69
2022/07/27 10:28:48;;;;;;;7.50;1.05;;;;;;;;;;4935720;28;20039;-68
2022/07/27 10:31:16;;;;;;;7.78;1.10;;;;;;;;;;4935761;28;20035;-69
2022/07/27 10:33:46;;;;;;;6.47;1.20;;;;;;;;;;4936218;28;20121;-69
2022/07/27 10:36:18;;;;;;;4.68;1.10;;;;;;;;;;4939507;28;20045;-69
2022/07/27 10:38:43;;;;;;;;;;;;;;;;;;4935280;28;20037;-68
2022/07/27 10:41:25;;;;;;;1.83;0.80;;;;;;;;;;4936714;28;19929;-68
2022/07/27 10:44:12;;;;;;;4.20;0.80;;;;;;;;;;4935156;28;20382;-68
2022/07/27 10:46:41;;;;;;;5.35;1.00;;;;;;;;;;4925363;28;20121;-68
2022/07/27 10:49:25;;;;;;;4.40;1.00;;;;;;;;;;4934017;28;20345;-69
2022/07/27 10:51:54;;;;;;;4.82;1.00;;;;;;;;;;4932767;28;20296;-66
2022/07/27 10:54:37;;;;;;;5.00;0.90;;;;;;;;;;4948975;28;20122;-67
2022/07/27 10:57:03;;;;;;;3.92;0.90;;;;;;;;;;4950811;28;20786;-68
2022/07/27 10:59:38;;;;;;;3.88;0.90;;;;;;;;;;4952646;28;20127;-68
2022/07/27 11:02:07;;;;;;;7.18;1.00;;;;;;;;;;4940908;28;20031;-69
2022/07/27 11:04:33;;;;;;;4.68;0.90;;;;;;;;;;4950146;28;20109;-69
2022/07/27 11:07:00;;;;;;;4.28;0.80;;;;;;;;;;4951018;28;21721;-67
2022/07/27 11:09:39;;;;;;;5.93;0.95;;;;;;;;;;4950313;28;20420;-68
2022/07/27 11:12:05;;;;;;;6.75;1.02;;;;;;;;;;4952494;28;20037;-70
2022/07/27 11:14:41;;;;;;;5.20;0.88;;;;;;;;;;4937528;28;20326;-69
2022/07/27 11:17:07;;;;;;;5.20;0.90;;;;;;;;;;4950939;28;20192;-66
2022/07/27 11:19:32;;;;;;;7.80;0.90;;;;;;;;;;4949702;28;20514;-69
2022/07/27 11:21:59;;;;;;;3.47;0.82;;;;;;;;;;4942064;28;20111;-68
2022/07/27 11:24:27;;;;;;;6.05;1.10;;;;;;;;;;4950338;28;20042;-69
2022/07/27 11:26:52;;;;;;;4.22;0.80;;;;;;;;;;4934409;28;20499;-69
2022/07/27 11:29:19;;;;;;;5.13;0.90;;;;;;;;;;4936963;28;20081;-67
2022/07/27 11:31:49;;;;;;;4.05;0.70;;;;;;;;;;4938734;28;20035;-67
2022/07/27 11:34:17;;;;;;;2.67;0.82;;;;;;;;;;4934365;28;20045;-68
2022/07/27 11:36:42;;;;;;;2.97;0.80;;;;;;;;;;4934025;28;20434;-68
2022/07/27 11:39:09;;;;;;;5.47;0.80;;;;;;;;;;4942267;28;20035;-68
2022/07/27 11:41:37;;;;;;;6.20;0.90;;;;;;;;;;4934542;28;20038;-70
2022/07/27 11:44:07;;;;;;;6.57;1.08;;;;;;;;;;4940613;28;20677;-70
2022/07/27 11:46:33;;;;;;;4.72;0.90;;;;;;;;;;4936072;28;20102;-68
2022/07/27 11:49:00;;;;;;;7.40;1.13;;;;;;;;;;4935084;28;20481;-68
2022/07/27 11:51:26;;;;;;;5.45;0.80;;;;;;;;;;4932731;28;20441;-69
2022/07/27 11:54:02;;;;;;;5.70;0.80;;;;;;;;;;4934919;28;20755;-66
2022/07/27 11:56:28;;;;;;;3.65;0.70;;;;;;;;;;4932243;28;20129;-69
2022/07/27 11:58:58;;;;;;;5.45;0.90;;;;;;;;;;4934199;28;20125;-69
2022/07/27 12:01:27;;;;;;;2.83;0.60;;;;;;;;;;4933904;28;20122;-69
2022/07/27 12:04:03;;;;;;;5.75;0.93;;;;;;;;;;4931666;28;20038;-68
2022/07/27 12:06:30;;;;;;;9.20;1.20;;;;;;;;;;4933830;28;20035;-69
2022/07/27 12:08:56;;;;;;;7.70;1.08;;;;;;;;;;4933257;28;20045;-69
2022/07/27 12:11:40;;;;;;;5.80;0.73;;;;;;;;;;4933974;28;20276;-69
2022/07/27 12:14:15;;;;;;;3.85;0.77;;;;;;;;;;4932740;28;20027;-69
2022/07/27 12:16:40;;;;;;;4.38;0.90;;;;;;;;;;4936849;28;20642;-69
2022/07/27 12:19:06;;;;;;;6.10;1.05;;;;;;;;;;4937538;28;20050;-68
2022/07/27 12:21:31;;;;;;;4.22;1.02;;;;;;;;;;4935860;28;20086;-69
2022/07/27 12:23:57;;;;;;;9.90;1.00;;;;;;;;;;4936013;28;20519;-68
2022/07/27 12:26:26;;;;;;;3.33;0.70;;;;;;;;;;4938374;28;20555;-67
2022/07/27 12:29:11;;;;;;;4.97;0.90;;;;;;;;;;4938246;28;20042;-69
2022/07/27 12:31:46;;;;;;;7.07;0.85;;;;;;;;;;4935876;28;22289;-69
2022/07/27 12:34:13;;;;;;;5.70;0.93;;;;;;;;;;4934300;28;20034;-69
2022/07/27 12:36:39;;;;;;;5.65;0.98;;;;;;;;;;4940130;28;22398;-69
2022/07/27 12:39:04;;;;;;;7.43;1.00;;;;;;;;;;4935155;28;20718;-69
2022/07/27 12:41:36;;;;;;;5.15;1.00;;;;;;;;;;4935084;28;20049;-68
2022/07/27 12:44:12;;;;;;;5.35;0.80;;;;;;;;;;4933420;28;20902;-69
2022/07/27 12:46:52;;;;;;;6.53;0.93;;;;;;;;;;4935177;28;20035;-69
2022/07/27 12:49:21;;;;;;;4.22;0.80;;;;;;;;;;4933632;28;20117;-69
2022/07/27 12:51:46;;;;;;;5.45;1.00;;;;;;;;;;4933808;28;20038;-67
2022/07/27 12:54:16;;;;;;;3.75;0.85;;;;;;;;;;4934900;28;20105;-68
2022/07/27 12:56:41;;;;;;;5.90;0.65;;;;;;;;;;4934353;28;21102;-68
2022/07/27 12:59:07;;;;;;;4.78;0.90;;;;;;;;;;4934706;28;20045;-68
2022/07/27 13:01:32;;;;;;;6.07;1.05;;;;;;;;;;4933408;28;20058;-69
2022/07/27 13:03:57;;;;;;;2.40;0.65;;;;;;;;;;4933812;28;20047;-68
2022/07/27 13:06:23;;;;;;;5.68;0.90;;;;;;;;;;4933879;28;20791;-69
2022/07/27 13:08:51;;;;;;;5.30;0.90;;;;;;;;;;4934125;28;20686;-69
2022/07/27 13:11:16;;;;;;;2.10;0.60;;;;;;;;;;4948885;28;20771;-68
2022/07/27 13:13:41;;;;;;;5.95;0.88;;;;;;;;;;4933481;28;20127;-68
2022/07/27 13:16:09;;;;;;;6.35;0.70;;;;;;;;;;4938877;28;20092;-69
2022/07/27 13:18:37;;;;;;;6.60;1.10;;;;;;;;;;4947569;28;21321;-63
2022/07/27 13:21:02;;;;;;;5.30;0.90;;;;;;;;;;4933743;28;20630;-62
2022/07/27 13:23:28;;;;;;;4.22;0.85;;;;;;;;;;4933822;28;20063;-61
2022/07/27 13:25:55;;;;;;;5.18;0.90;;;;;;;;;;4947351;28;20447;-63
2022/07/27 13:28:23;;;;;;;5.53;1.02;;;;;;;;;;4930123;28;20038;-62
2022/07/27 13:30:49;;;;;;;10.13;1.02;;;;;;;;;;4940827;28;20519;-63
2022/07/27 13:33:17;;;;;;;5.35;0.82;;;;;;;;;;4933783;28;20034;-63
2022/07/27 13:35:42;;;;;;;6.10;0.80;;;;;;;;;;4935178;28;20646;-63
2022/07/27 13:38:10;;;;;;;5.60;0.88;;;;;;;;;;4934428;28;20500;-63
2022/07/27 13:40:35;;;;;;;5.85;0.98;;;;;;;;;;4934613;28;20302;-62
2022/07/27 13:43:01;;;;;;;8.40;1.05;;;;;;;;;;4933592;28;20208;-67
2022/07/27 13:45:26;;;;;;;7.88;0.93;;;;;;;;;;4942365;28;20031;-69
2022/07/27 13:47:53;;;;;;;4.88;1.02;;;;;;;;;;4941198;28;20495;-69
2022/07/27 13:50:18;;;;;;;4.05;0.82;;;;;;;;;;4944646;28;20034;-70
2022/07/27 13:52:44;;;;;;;7.00;0.75;;;;;;;;;;4938393;28;20035;-69
2022/07/27 13:55:10;;;;;;;6.05;0.73;;;;;;;;;;4943768;28;20118;-69
2022/07/27 13:57:41;;;;;;;6.68;1.00;;;;;;;;;;4941432;28;20415;-68
2022/07/27 14:00:06;;;;;;;6.90;1.10;;;;;;;;;;4953700;28;20042;-68
2022/07/27 14:02:34;;;;;;;5.65;0.90;;;;;;;;;;4956065;28;20140;-70
2022/07/27 14:05:05;;;;;;;8.02;0.93;;;;;;;;;;4940448;28;20030;-69
2022/07/27 14:07:30;;;;;;;6.00;0.80;;;;;;;;;;4941864;28;20167;-68
2022/07/27 14:12:45;;;;;;;5.13;0.82;;;;;;;;;;4940354;28;21023;-69
2022/07/27 14:15:10;;;;;;;6.57;0.85;;;;;;;;;;4934712;28;20506;-67
2022/07/27 14:17:36;;;;;;;4.75;1.20;;;;;;;;;;4934633;28;20055;-68
2022/07/27 14:20:02;;;;;;;5.50;0.82;;;;;;;;;;4947537;28;20149;-67
2022/07/27 14:22:27;;;;;;;6.25;1.05;;;;;;;;;;4936284;28;20022;-67
2022/07/27 14:24:53;;;;;;;7.15;1.02;;;;;;;;;;4938773;28;20046;-68
2022/07/27 14:27:18;;;;;;;8.10;0.88;;;;;;;;;;4938679;28;20038;-69
2022/07/27 14:29:46;;;;;;;5.03;0.80;;;;;;;;;;4940125;28;20116;-68
2022/07/27 14:32:11;;;;;;;10.05;0.82;;;;;;;;;;4940670;28;20047;-70
2022/07/27 14:34:36;;;;;;;8.10;0.90;;;;;;;;;;4941006;28;20086;-69
2022/07/27 14:37:04;;;;;;;12.48;1.10;;;;;;;;;;4940091;28;20126;-69
2022/07/27 14:39:29;;;;;;;5.32;0.98;;;;;;;;;;4939577;28;20088;-69
2022/07/27 14:41:59;;;;;;;4.90;0.70;;;;;;;;;;4937532;28;20030;-68
2022/07/27 14:44:24;;;;;;;7.43;1.30;;;;;;;;;;4939519;28;20038;-67